sensor_id;sensor_type;location;lat;lon;timestamp;P1;durP1;ratioP1;P2;durP2;ratioP2
34783;SDS011;20998;51.388;7.032;2023-04-23T00:01:33;35.87;;;17.67;;
34783;SDS011;20998;51.388;7.032;2023-04-23T00:04:04;40.00;;;17.10;;
34783;SDS011;20998;51.388;7.032;2023-04-23T00:06:34;44.97;;;16.43;;
34783;SDS011;20998;51.388;7.032;2023-04-23T00:09:00;35.13;;;16.90;;
34783;SDS011;20998;51.388;7.032;2023-04-23T00:11:27;27.40;;;14.07;;
34783;SDS011;20998;51.388;7.032;2023-04-23T00:13:54;28.43;;;14.43;;
34783;SDS011;20998;51.388;7.032;2023-04-23T00:16:20;36.63;;;14.27;;
34783;SDS011;20998;51.388;7.032;2023-04-23T00:18:46;27.37;;;13.83;;
34783;SDS011;20998;51.388;7.032;2023-04-23T00:21:13;29.20;;;14.37;;
34783;SDS011;20998;51.388;7.032;2023-04-23T00:23:39;32.37;;;14.60;;
34783;SDS011;20998;51.388;7.032;2023-04-23T00:26:05;30.90;;;14.37;;
34783;SDS011;20998;51.388;7.032;2023-04-23T00:28:31;25.23;;;12.33;;
34783;SDS011;20998;51.388;7.032;2023-04-23T00:30:57;27.10;;;13.90;;
34783;SDS011;20998;51.388;7.032;2023-04-23T00:33:23;30.13;;;14.60;;
34783;SDS011;20998;51.388;7.032;2023-04-23T00:35:49;27.03;;;13.37;;
34783;SDS011;20998;51.388;7.032;2023-04-23T00:38:15;27.80;;;13.40;;
34783;SDS011;20998;51.388;7.032;2023-04-23T00:40:41;29.03;;;13.40;;
34783;SDS011;20998;51.388;7.032;2023-04-23T00:43:07;25.23;;;12.93;;
34783;SDS011;20998;51.388;7.032;2023-04-23T00:45:33;29.13;;;14.37;;
34783;SDS011;20998;51.388;7.032;2023-04-23T00:47:59;25.63;;;13.20;;
34783;SDS011;20998;51.388;7.032;2023-04-23T00:50:27;25.27;;;12.63;;
34783;SDS011;20998;51.388;7.032;2023-04-23T00:52:53;30.53;;;13.67;;
34783;SDS011;20998;51.388;7.032;2023-04-23T00:55:19;25.70;;;12.77;;
34783;SDS011;20998;51.388;7.032;2023-04-23T00:57:45;25.80;;;12.73;;
34783;SDS011;20998;51.388;7.032;2023-04-23T01:00:12;31.07;;;12.67;;
34783;SDS011;20998;51.388;7.032;2023-04-23T01:02:38;24.00;;;13.27;;
34783;SDS011;20998;51.388;7.032;2023-04-23T01:05:04;28.17;;;13.37;;
34783;SDS011;20998;51.388;7.032;2023-04-23T01:07:32;25.00;;;12.80;;
34783;SDS011;20998;51.388;7.032;2023-04-23T01:09:59;24.57;;;13.13;;
34783;SDS011;20998;51.388;7.032;2023-04-23T01:12:25;22.67;;;12.33;;
34783;SDS011;20998;51.388;7.032;2023-04-23T01:14:51;21.67;;;11.90;;
34783;SDS011;20998;51.388;7.032;2023-04-23T01:17:17;24.93;;;13.57;;
34783;SDS011;20998;51.388;7.032;2023-04-23T01:19:43;30.97;;;13.10;;
34783;SDS011;20998;51.388;7.032;2023-04-23T01:22:12;23.33;;;12.10;;
34783;SDS011;20998;51.388;7.032;2023-04-23T01:24:39;24.43;;;13.27;;
34783;SDS011;20998;51.388;7.032;2023-04-23T01:27:06;26.20;;;13.07;;
34783;SDS011;20998;51.388;7.032;2023-04-23T01:29:32;24.23;;;12.63;;
34783;SDS011;20998;51.388;7.032;2023-04-23T01:31:58;22.10;;;11.97;;
34783;SDS011;20998;51.388;7.032;2023-04-23T01:34:25;26.27;;;13.77;;
34783;SDS011;20998;51.388;7.032;2023-04-23T01:36:51;26.10;;;12.97;;
34783;SDS011;20998;51.388;7.032;2023-04-23T01:39:16;24.60;;;13.30;;
34783;SDS011;20998;51.388;7.032;2023-04-23T01:41:42;24.63;;;12.43;;
34783;SDS011;20998;51.388;7.032;2023-04-23T01:44:09;22.03;;;13.07;;
34783;SDS011;20998;51.388;7.032;2023-04-23T01:46:35;24.93;;;12.27;;
34783;SDS011;20998;51.388;7.032;2023-04-23T01:49:01;21.97;;;12.63;;
34783;SDS011;20998;51.388;7.032;2023-04-23T01:51:28;28.70;;;12.20;;
34783;SDS011;20998;51.388;7.032;2023-04-23T01:53:54;26.53;;;12.87;;
34783;SDS011;20998;51.388;7.032;2023-04-23T01:56:22;27.07;;;12.93;;
34783;SDS011;20998;51.388;7.032;2023-04-23T01:58:50;23.97;;;12.93;;
34783;SDS011;20998;51.388;7.032;2023-04-23T02:01:16;23.00;;;13.13;;
34783;SDS011;20998;51.388;7.032;2023-04-23T02:03:42;23.50;;;12.67;;
34783;SDS011;20998;51.388;7.032;2023-04-23T02:06:09;25.13;;;11.90;;
34783;SDS011;20998;51.388;7.032;2023-04-23T02:08:35;23.63;;;12.80;;
34783;SDS011;20998;51.388;7.032;2023-04-23T02:11:01;21.53;;;12.07;;
34783;SDS011;20998;51.388;7.032;2023-04-23T02:13:26;21.97;;;12.40;;
34783;SDS011;20998;51.388;7.032;2023-04-23T02:15:52;23.13;;;12.47;;
34783;SDS011;20998;51.388;7.032;2023-04-23T02:18:18;22.37;;;12.07;;
34783;SDS011;20998;51.388;7.032;2023-04-23T02:20:44;27.27;;;13.40;;
34783;SDS011;20998;51.388;7.032;2023-04-23T02:23:10;24.43;;;12.37;;
34783;SDS011;20998;51.388;7.032;2023-04-23T02:25:36;24.63;;;13.57;;
34783;SDS011;20998;51.388;7.032;2023-04-23T02:28:03;20.93;;;11.33;;
34783;SDS011;20998;51.388;7.032;2023-04-23T02:30:31;26.23;;;12.80;;
34783;SDS011;20998;51.388;7.032;2023-04-23T02:32:57;23.37;;;12.33;;
34783;SDS011;20998;51.388;7.032;2023-04-23T02:35:23;22.90;;;11.43;;
34783;SDS011;20998;51.388;7.032;2023-04-23T02:37:49;22.63;;;12.20;;
34783;SDS011;20998;51.388;7.032;2023-04-23T02:40:16;26.90;;;13.17;;
34783;SDS011;20998;51.388;7.032;2023-04-23T02:42:42;16.97;;;10.87;;
34783;SDS011;20998;51.388;7.032;2023-04-23T02:45:07;20.77;;;11.90;;
34783;SDS011;20998;51.388;7.032;2023-04-23T02:47:33;20.37;;;11.47;;
34783;SDS011;20998;51.388;7.032;2023-04-23T02:50:00;21.40;;;11.27;;
34783;SDS011;20998;51.388;7.032;2023-04-23T02:52:29;21.37;;;11.90;;
34783;SDS011;20998;51.388;7.032;2023-04-23T02:54:55;19.03;;;10.63;;
34783;SDS011;20998;51.388;7.032;2023-04-23T02:57:21;20.97;;;10.80;;
34783;SDS011;20998;51.388;7.032;2023-04-23T02:59:47;19.23;;;11.17;;
34783;SDS011;20998;51.388;7.032;2023-04-23T03:02:14;22.00;;;11.93;;
34783;SDS011;20998;51.388;7.032;2023-04-23T03:04:40;21.97;;;11.47;;
34783;SDS011;20998;51.388;7.032;2023-04-23T03:07:06;20.00;;;11.20;;
34783;SDS011;20998;51.388;7.032;2023-04-23T03:09:32;17.70;;;10.33;;
34783;SDS011;20998;51.388;7.032;2023-04-23T03:11:58;18.73;;;10.60;;
34783;SDS011;20998;51.388;7.032;2023-04-23T03:14:26;24.20;;;11.50;;
34783;SDS011;20998;51.388;7.032;2023-04-23T03:16:52;23.33;;;11.87;;
34783;SDS011;20998;51.388;7.032;2023-04-23T03:19:18;18.87;;;10.70;;
34783;SDS011;20998;51.388;7.032;2023-04-23T03:21:44;23.53;;;11.50;;
34783;SDS011;20998;51.388;7.032;2023-04-23T03:24:11;17.83;;;10.33;;
34783;SDS011;20998;51.388;7.032;2023-04-23T03:26:38;21.03;;;11.63;;
34783;SDS011;20998;51.388;7.032;2023-04-23T03:29:04;23.77;;;12.07;;
34783;SDS011;20998;51.388;7.032;2023-04-23T03:31:30;24.63;;;12.07;;
34783;SDS011;20998;51.388;7.032;2023-04-23T03:33:56;29.27;;;13.97;;
34783;SDS011;20998;51.388;7.032;2023-04-23T03:36:22;26.90;;;12.50;;
34783;SDS011;20998;51.388;7.032;2023-04-23T03:38:48;25.27;;;12.77;;
34783;SDS011;20998;51.388;7.032;2023-04-23T03:41:14;18.93;;;11.90;;
34783;SDS011;20998;51.388;7.032;2023-04-23T03:43:39;25.97;;;11.53;;
34783;SDS011;20998;51.388;7.032;2023-04-23T03:46:05;22.43;;;11.73;;
34783;SDS011;20998;51.388;7.032;2023-04-23T03:48:31;21.10;;;11.80;;
34783;SDS011;20998;51.388;7.032;2023-04-23T03:50:57;26.60;;;12.13;;
34783;SDS011;20998;51.388;7.032;2023-04-23T03:53:23;26.20;;;11.70;;
34783;SDS011;20998;51.388;7.032;2023-04-23T03:55:49;26.50;;;11.67;;
34783;SDS011;20998;51.388;7.032;2023-04-23T03:58:15;18.63;;;10.33;;
34783;SDS011;20998;51.388;7.032;2023-04-23T04:00:42;23.87;;;10.90;;
34783;SDS011;20998;51.388;7.032;2023-04-23T04:03:08;23.00;;;11.23;;
34783;SDS011;20998;51.388;7.032;2023-04-23T04:05:34;18.57;;;10.63;;
34783;SDS011;20998;51.388;7.032;2023-04-23T04:08:00;22.47;;;11.43;;
34783;SDS011;20998;51.388;7.032;2023-04-23T04:10:26;20.47;;;11.77;;
34783;SDS011;20998;51.388;7.032;2023-04-23T04:12:52;18.73;;;10.77;;
34783;SDS011;20998;51.388;7.032;2023-04-23T04:15:19;19.13;;;9.83;;
34783;SDS011;20998;51.388;7.032;2023-04-23T04:17:45;18.50;;;10.13;;
34783;SDS011;20998;51.388;7.032;2023-04-23T04:20:11;16.40;;;9.33;;
34783;SDS011;20998;51.388;7.032;2023-04-23T04:22:37;15.80;;;8.77;;
34783;SDS011;20998;51.388;7.032;2023-04-23T04:25:03;18.40;;;10.67;;
34783;SDS011;20998;51.388;7.032;2023-04-23T04:27:30;18.13;;;9.63;;
34783;SDS011;20998;51.388;7.032;2023-04-23T04:29:58;15.07;;;8.70;;
34783;SDS011;20998;51.388;7.032;2023-04-23T04:32:25;15.77;;;8.60;;
34783;SDS011;20998;51.388;7.032;2023-04-23T04:34:51;20.60;;;9.83;;
34783;SDS011;20998;51.388;7.032;2023-04-23T04:37:18;20.57;;;10.30;;
34783;SDS011;20998;51.388;7.032;2023-04-23T04:39:45;17.83;;;9.40;;
34783;SDS011;20998;51.388;7.032;2023-04-23T04:42:11;16.30;;;9.10;;
34783;SDS011;20998;51.388;7.032;2023-04-23T04:44:37;19.13;;;9.83;;
34783;SDS011;20998;51.388;7.032;2023-04-23T04:47:04;23.47;;;9.63;;
34783;SDS011;20998;51.388;7.032;2023-04-23T04:49:32;16.77;;;9.27;;
34783;SDS011;20998;51.388;7.032;2023-04-23T04:51:57;19.20;;;10.43;;
34783;SDS011;20998;51.388;7.032;2023-04-23T04:54:23;15.23;;;8.57;;
34783;SDS011;20998;51.388;7.032;2023-04-23T04:56:49;14.87;;;8.77;;
34783;SDS011;20998;51.388;7.032;2023-04-23T04:59:15;16.20;;;8.90;;
34783;SDS011;20998;51.388;7.032;2023-04-23T05:01:41;20.53;;;10.53;;
34783;SDS011;20998;51.388;7.032;2023-04-23T05:04:07;18.97;;;10.27;;
34783;SDS011;20998;51.388;7.032;2023-04-23T05:06:33;21.93;;;10.20;;
34783;SDS011;20998;51.388;7.032;2023-04-23T05:08:59;18.60;;;10.20;;
34783;SDS011;20998;51.388;7.032;2023-04-23T05:11:25;14.67;;;9.53;;
34783;SDS011;20998;51.388;7.032;2023-04-23T05:13:51;19.57;;;10.67;;
34783;SDS011;20998;51.388;7.032;2023-04-23T05:16:17;17.47;;;9.90;;
34783;SDS011;20998;51.388;7.032;2023-04-23T05:18:43;16.17;;;8.93;;
34783;SDS011;20998;51.388;7.032;2023-04-23T05:21:10;18.53;;;10.73;;
34783;SDS011;20998;51.388;7.032;2023-04-23T05:23:36;16.43;;;9.30;;
34783;SDS011;20998;51.388;7.032;2023-04-23T05:26:02;17.23;;;9.17;;
34783;SDS011;20998;51.388;7.032;2023-04-23T05:28:28;20.57;;;9.17;;
34783;SDS011;20998;51.388;7.032;2023-04-23T05:30:55;17.00;;;9.53;;
34783;SDS011;20998;51.388;7.032;2023-04-23T05:33:21;16.07;;;8.33;;
34783;SDS011;20998;51.388;7.032;2023-04-23T05:35:47;14.37;;;8.03;;
34783;SDS011;20998;51.388;7.032;2023-04-23T05:38:13;15.07;;;8.73;;
34783;SDS011;20998;51.388;7.032;2023-04-23T05:40:39;18.40;;;9.60;;
34783;SDS011;20998;51.388;7.032;2023-04-23T05:43:04;14.93;;;8.60;;
34783;SDS011;20998;51.388;7.032;2023-04-23T05:45:30;16.80;;;8.80;;
34783;SDS011;20998;51.388;7.032;2023-04-23T05:47:56;21.80;;;9.47;;
34783;SDS011;20998;51.388;7.032;2023-04-23T05:50:22;16.60;;;8.67;;
34783;SDS011;20998;51.388;7.032;2023-04-23T05:52:48;14.70;;;8.47;;
34783;SDS011;20998;51.388;7.032;2023-04-23T05:55:14;14.33;;;7.80;;
34783;SDS011;20998;51.388;7.032;2023-04-23T05:57:42;15.37;;;8.30;;
34783;SDS011;20998;51.388;7.032;2023-04-23T06:00:08;14.60;;;8.27;;
34783;SDS011;20998;51.388;7.032;2023-04-23T06:02:35;11.73;;;6.97;;
34783;SDS011;20998;51.388;7.032;2023-04-23T06:05:01;16.63;;;8.00;;
34783;SDS011;20998;51.388;7.032;2023-04-23T06:07:27;15.70;;;7.97;;
34783;SDS011;20998;51.388;7.032;2023-04-23T06:09:53;14.27;;;8.60;;
34783;SDS011;20998;51.388;7.032;2023-04-23T06:12:19;12.60;;;8.13;;
34783;SDS011;20998;51.388;7.032;2023-04-23T06:14:45;18.23;;;7.83;;
34783;SDS011;20998;51.388;7.032;2023-04-23T06:17:11;14.07;;;7.67;;
34783;SDS011;20998;51.388;7.032;2023-04-23T06:19:37;12.63;;;7.23;;
34783;SDS011;20998;51.388;7.032;2023-04-23T06:22:03;13.77;;;7.73;;
34783;SDS011;20998;51.388;7.032;2023-04-23T06:24:29;11.40;;;6.73;;
34783;SDS011;20998;51.388;7.032;2023-04-23T06:26:55;12.27;;;6.67;;
34783;SDS011;20998;51.388;7.032;2023-04-23T06:29:21;13.40;;;6.77;;
34783;SDS011;20998;51.388;7.032;2023-04-23T06:31:47;12.03;;;6.43;;
34783;SDS011;20998;51.388;7.032;2023-04-23T06:34:13;11.73;;;6.40;;
34783;SDS011;20998;51.388;7.032;2023-04-23T06:36:39;14.10;;;7.00;;
34783;SDS011;20998;51.388;7.032;2023-04-23T06:39:07;12.07;;;6.87;;
34783;SDS011;20998;51.388;7.032;2023-04-23T06:41:34;10.57;;;6.60;;
34783;SDS011;20998;51.388;7.032;2023-04-23T06:44:00;11.13;;;6.70;;
34783;SDS011;20998;51.388;7.032;2023-04-23T06:46:26;12.33;;;6.40;;
34783;SDS011;20998;51.388;7.032;2023-04-23T06:48:52;8.37;;;5.43;;
34783;SDS011;20998;51.388;7.032;2023-04-23T06:51:18;10.13;;;6.30;;
34783;SDS011;20998;51.388;7.032;2023-04-23T06:53:44;8.60;;;6.33;;
34783;SDS011;20998;51.388;7.032;2023-04-23T06:56:10;9.70;;;6.37;;
34783;SDS011;20998;51.388;7.032;2023-04-23T06:58:36;9.37;;;5.43;;
34783;SDS011;20998;51.388;7.032;2023-04-23T07:01:03;8.60;;;5.13;;
34783;SDS011;20998;51.388;7.032;2023-04-23T07:03:29;11.67;;;5.93;;
34783;SDS011;20998;51.388;7.032;2023-04-23T07:05:55;14.80;;;6.77;;
34783;SDS011;20998;51.388;7.032;2023-04-23T07:08:21;9.57;;;5.70;;
34783;SDS011;20998;51.388;7.032;2023-04-23T07:10:47;9.70;;;6.37;;
34783;SDS011;20998;51.388;7.032;2023-04-23T07:13:14;11.23;;;6.00;;
34783;SDS011;20998;51.388;7.032;2023-04-23T07:15:40;10.13;;;5.87;;
34783;SDS011;20998;51.388;7.032;2023-04-23T07:18:07;10.63;;;5.67;;
34783;SDS011;20998;51.388;7.032;2023-04-23T07:20:33;13.77;;;8.10;;
34783;SDS011;20998;51.388;7.032;2023-04-23T07:22:59;9.80;;;5.93;;
34783;SDS011;20998;51.388;7.032;2023-04-23T07:25:25;8.87;;;5.43;;
34783;SDS011;20998;51.388;7.032;2023-04-23T07:27:51;8.30;;;5.10;;
34783;SDS011;20998;51.388;7.032;2023-04-23T07:30:21;8.80;;;4.70;;
34783;SDS011;20998;51.388;7.032;2023-04-23T07:32:47;6.40;;;4.67;;
34783;SDS011;20998;51.388;7.032;2023-04-23T07:35:14;7.80;;;4.63;;
34783;SDS011;20998;51.388;7.032;2023-04-23T07:37:40;5.07;;;3.93;;
34783;SDS011;20998;51.388;7.032;2023-04-23T07:40:06;10.37;;;4.77;;
34783;SDS011;20998;51.388;7.032;2023-04-23T07:42:33;6.00;;;3.97;;
34783;SDS011;20998;51.388;7.032;2023-04-23T07:44:59;5.33;;;3.73;;
34783;SDS011;20998;51.388;7.032;2023-04-23T07:47:25;5.30;;;3.80;;
34783;SDS011;20998;51.388;7.032;2023-04-23T07:49:51;5.83;;;3.23;;
34783;SDS011;20998;51.388;7.032;2023-04-23T07:52:16;8.03;;;3.77;;
34783;SDS011;20998;51.388;7.032;2023-04-23T07:54:43;5.63;;;3.17;;
34783;SDS011;20998;51.388;7.032;2023-04-23T07:57:10;7.23;;;3.97;;
34783;SDS011;20998;51.388;7.032;2023-04-23T07:59:36;8.30;;;3.87;;
34783;SDS011;20998;51.388;7.032;2023-04-23T08:02:05;5.10;;;3.37;;
34783;SDS011;20998;51.388;7.032;2023-04-23T08:04:31;8.07;;;3.83;;
34783;SDS011;20998;51.388;7.032;2023-04-23T08:06:57;6.30;;;3.50;;
34783;SDS011;20998;51.388;7.032;2023-04-23T08:09:25;7.63;;;3.20;;
34783;SDS011;20998;51.388;7.032;2023-04-23T08:11:53;5.07;;;3.00;;
34783;SDS011;20998;51.388;7.032;2023-04-23T08:14:19;4.80;;;3.20;;
34783;SDS011;20998;51.388;7.032;2023-04-23T08:16:45;6.80;;;3.60;;
34783;SDS011;20998;51.388;7.032;2023-04-23T08:19:11;6.63;;;3.13;;
34783;SDS011;20998;51.388;7.032;2023-04-23T08:21:37;4.33;;;3.27;;
34783;SDS011;20998;51.388;7.032;2023-04-23T08:24:03;6.93;;;3.37;;
34783;SDS011;20998;51.388;7.032;2023-04-23T08:26:30;8.07;;;3.90;;
34783;SDS011;20998;51.388;7.032;2023-04-23T08:28:56;5.00;;;4.00;;
34783;SDS011;20998;51.388;7.032;2023-04-23T08:31:24;4.90;;;3.20;;
34783;SDS011;20998;51.388;7.032;2023-04-23T08:33:50;7.17;;;3.67;;
34783;SDS011;20998;51.388;7.032;2023-04-23T08:36:16;4.60;;;3.00;;
34783;SDS011;20998;51.388;7.032;2023-04-23T08:38:42;5.63;;;3.57;;
34783;SDS011;20998;51.388;7.032;2023-04-23T08:41:09;6.43;;;3.07;;
34783;SDS011;20998;51.388;7.032;2023-04-23T08:43:38;8.47;;;3.40;;
34783;SDS011;20998;51.388;7.032;2023-04-23T08:46:20;3.90;;;2.93;;
34783;SDS011;20998;51.388;7.032;2023-04-23T08:48:47;5.23;;;3.10;;
34783;SDS011;20998;51.388;7.032;2023-04-23T08:51:17;4.97;;;3.00;;
34783;SDS011;20998;51.388;7.032;2023-04-23T08:53:45;6.73;;;3.40;;
34783;SDS011;20998;51.388;7.032;2023-04-23T08:56:18;5.00;;;2.97;;
34783;SDS011;20998;51.388;7.032;2023-04-23T08:58:45;6.30;;;3.43;;
34783;SDS011;20998;51.388;7.032;2023-04-23T09:01:11;4.77;;;2.50;;
34783;SDS011;20998;51.388;7.032;2023-04-23T09:03:38;9.37;;;2.60;;
34783;SDS011;20998;51.388;7.032;2023-04-23T09:06:04;3.33;;;2.57;;
34783;SDS011;20998;51.388;7.032;2023-04-23T09:08:31;5.33;;;2.70;;
34783;SDS011;20998;51.388;7.032;2023-04-23T09:10:58;5.37;;;4.03;;
34783;SDS011;20998;51.388;7.032;2023-04-23T09:13:25;12.00;;;3.10;;
34783;SDS011;20998;51.388;7.032;2023-04-23T09:15:51;7.40;;;2.80;;
34783;SDS011;20998;51.388;7.032;2023-04-23T09:18:17;5.27;;;2.57;;
34783;SDS011;20998;51.388;7.032;2023-04-23T09:20:44;6.57;;;3.10;;
34783;SDS011;20998;51.388;7.032;2023-04-23T09:23:12;4.53;;;2.67;;
34783;SDS011;20998;51.388;7.032;2023-04-23T09:25:39;7.00;;;3.10;;
34783;SDS011;20998;51.388;7.032;2023-04-23T09:28:08;5.30;;;2.97;;
34783;SDS011;20998;51.388;7.032;2023-04-23T09:30:47;3.47;;;2.73;;
34783;SDS011;20998;51.388;7.032;2023-04-23T09:33:13;3.70;;;2.53;;
34783;SDS011;20998;51.388;7.032;2023-04-23T09:35:41;4.03;;;2.53;;
34783;SDS011;20998;51.388;7.032;2023-04-23T09:38:07;3.20;;;2.33;;
34783;SDS011;20998;51.388;7.032;2023-04-23T09:40:35;6.27;;;3.20;;
34783;SDS011;20998;51.388;7.032;2023-04-23T09:43:02;3.47;;;2.70;;
34783;SDS011;20998;51.388;7.032;2023-04-23T09:45:28;4.27;;;2.80;;
34783;SDS011;20998;51.388;7.032;2023-04-23T09:47:55;8.97;;;3.10;;
34783;SDS011;20998;51.388;7.032;2023-04-23T09:50:43;4.50;;;2.87;;
34783;SDS011;20998;51.388;7.032;2023-04-23T09:53:08;3.57;;;2.33;;
34783;SDS011;20998;51.388;7.032;2023-04-23T09:55:37;5.37;;;3.03;;
34783;SDS011;20998;51.388;7.032;2023-04-23T09:58:05;3.63;;;2.17;;
34783;SDS011;20998;51.388;7.032;2023-04-23T10:00:39;5.97;;;2.63;;
34783;SDS011;20998;51.388;7.032;2023-04-23T10:03:05;3.90;;;2.30;;
34783;SDS011;20998;51.388;7.032;2023-04-23T10:05:36;2.97;;;2.40;;
34783;SDS011;20998;51.388;7.032;2023-04-23T10:08:06;4.60;;;2.23;;
34783;SDS011;20998;51.388;7.032;2023-04-23T10:10:32;2.40;;;2.20;;
34783;SDS011;20998;51.388;7.032;2023-04-23T10:12:58;2.83;;;2.00;;
34783;SDS011;20998;51.388;7.032;2023-04-23T10:15:25;7.03;;;2.47;;
34783;SDS011;20998;51.388;7.032;2023-04-23T10:17:52;5.07;;;2.27;;
34783;SDS011;20998;51.388;7.032;2023-04-23T10:20:19;2.93;;;1.60;;
34783;SDS011;20998;51.388;7.032;2023-04-23T10:22:46;2.10;;;1.80;;
34783;SDS011;20998;51.388;7.032;2023-04-23T10:25:12;2.70;;;1.87;;
34783;SDS011;20998;51.388;7.032;2023-04-23T10:27:42;3.33;;;1.80;;
34783;SDS011;20998;51.388;7.032;2023-04-23T10:30:10;2.70;;;1.70;;
34783;SDS011;20998;51.388;7.032;2023-04-23T10:32:38;2.97;;;1.57;;
34783;SDS011;20998;51.388;7.032;2023-04-23T10:35:05;3.57;;;1.87;;
34783;SDS011;20998;51.388;7.032;2023-04-23T10:37:32;3.13;;;2.00;;
34783;SDS011;20998;51.388;7.032;2023-04-23T10:40:06;3.33;;;1.90;;
34783;SDS011;20998;51.388;7.032;2023-04-23T10:42:36;5.00;;;2.03;;
34783;SDS011;20998;51.388;7.032;2023-04-23T10:45:07;4.00;;;1.60;;
34783;SDS011;20998;51.388;7.032;2023-04-23T10:47:41;2.87;;;1.63;;
34783;SDS011;20998;51.388;7.032;2023-04-23T10:50:16;2.80;;;1.80;;
34783;SDS011;20998;51.388;7.032;2023-04-23T10:52:47;3.13;;;2.17;;
34783;SDS011;20998;51.388;7.032;2023-04-23T10:55:19;2.37;;;1.70;;
34783;SDS011;20998;51.388;7.032;2023-04-23T10:58:02;3.10;;;1.53;;
34783;SDS011;20998;51.388;7.032;2023-04-23T11:00:50;7.07;;;2.10;;
34783;SDS011;20998;51.388;7.032;2023-04-23T11:03:31;2.47;;;1.63;;
34783;SDS011;20998;51.388;7.032;2023-04-23T11:06:05;3.50;;;1.90;;
34783;SDS011;20998;51.388;7.032;2023-04-23T11:08:34;2.13;;;1.80;;
34783;SDS011;20998;51.388;7.032;2023-04-23T11:11:01;2.90;;;1.80;;
34783;SDS011;20998;51.388;7.032;2023-04-23T11:13:31;5.63;;;2.20;;
34783;SDS011;20998;51.388;7.032;2023-04-23T11:19:02;2.70;;;1.40;;
34783;SDS011;20998;51.388;7.032;2023-04-23T11:24:21;5.33;;;1.40;;
34783;SDS011;20998;51.388;7.032;2023-04-23T11:26:47;2.17;;;1.83;;
34783;SDS011;20998;51.388;7.032;2023-04-23T11:29:17;2.07;;;1.50;;
34783;SDS011;20998;51.388;7.032;2023-04-23T11:31:46;2.23;;;1.50;;
34783;SDS011;20998;51.388;7.032;2023-04-23T11:34:13;3.53;;;1.43;;
34783;SDS011;20998;51.388;7.032;2023-04-23T11:36:39;3.13;;;1.10;;
34783;SDS011;20998;51.388;7.032;2023-04-23T11:39:05;2.97;;;1.57;;
34783;SDS011;20998;51.388;7.032;2023-04-23T11:41:32;3.27;;;1.40;;
34783;SDS011;20998;51.388;7.032;2023-04-23T11:43:59;1.73;;;1.60;;
34783;SDS011;20998;51.388;7.032;2023-04-23T11:46:25;3.00;;;1.97;;
34783;SDS011;20998;51.388;7.032;2023-04-23T11:48:51;2.30;;;1.30;;
34783;SDS011;20998;51.388;7.032;2023-04-23T11:51:17;3.93;;;1.60;;
34783;SDS011;20998;51.388;7.032;2023-04-23T11:53:46;2.27;;;1.43;;
34783;SDS011;20998;51.388;7.032;2023-04-23T11:56:15;4.70;;;1.20;;
34783;SDS011;20998;51.388;7.032;2023-04-23T11:58:40;2.50;;;1.40;;
34783;SDS011;20998;51.388;7.032;2023-04-23T12:01:06;1.67;;;1.20;;
34783;SDS011;20998;51.388;7.032;2023-04-23T12:03:32;4.03;;;1.20;;
34783;SDS011;20998;51.388;7.032;2023-04-23T12:05:58;2.67;;;1.30;;
34783;SDS011;20998;51.388;7.032;2023-04-23T12:08:24;3.93;;;1.00;;
34783;SDS011;20998;51.388;7.032;2023-04-23T12:10:54;0.87;;;0.80;;
34783;SDS011;20998;51.388;7.032;2023-04-23T12:13:25;5.00;;;1.10;;
34783;SDS011;20998;51.388;7.032;2023-04-23T12:15:56;2.20;;;0.90;;
34783;SDS011;20998;51.388;7.032;2023-04-23T12:18:32;0.83;;;0.73;;
34783;SDS011;20998;51.388;7.032;2023-04-23T12:21:04;1.47;;;1.00;;
34783;SDS011;20998;51.388;7.032;2023-04-23T12:23:30;0.80;;;0.80;;
34783;SDS011;20998;51.388;7.032;2023-04-23T12:25:59;1.17;;;1.00;;
34783;SDS011;20998;51.388;7.032;2023-04-23T12:28:27;2.77;;;0.90;;
34783;SDS011;20998;51.388;7.032;2023-04-23T12:30:57;1.73;;;0.90;;
34783;SDS011;20998;51.388;7.032;2023-04-23T12:33:27;2.60;;;0.97;;
34783;SDS011;20998;51.388;7.032;2023-04-23T12:35:54;1.67;;;1.00;;
34783;SDS011;20998;51.388;7.032;2023-04-23T12:38:21;1.67;;;1.00;;
34783;SDS011;20998;51.388;7.032;2023-04-23T12:40:48;1.07;;;0.70;;
34783;SDS011;20998;51.388;7.032;2023-04-23T12:43:15;2.43;;;0.90;;
34783;SDS011;20998;51.388;7.032;2023-04-23T12:45:41;4.67;;;1.33;;
34783;SDS011;20998;51.388;7.032;2023-04-23T12:48:07;2.00;;;0.90;;
34783;SDS011;20998;51.388;7.032;2023-04-23T12:50:33;3.97;;;1.03;;
34783;SDS011;20998;51.388;7.032;2023-04-23T12:52:58;1.80;;;0.73;;
34783;SDS011;20998;51.388;7.032;2023-04-23T12:55:24;2.00;;;0.70;;
34783;SDS011;20998;51.388;7.032;2023-04-23T12:57:50;3.03;;;0.90;;
34783;SDS011;20998;51.388;7.032;2023-04-23T13:00:16;1.67;;;0.70;;
34783;SDS011;20998;51.388;7.032;2023-04-23T13:02:42;2.20;;;0.97;;
34783;SDS011;20998;51.388;7.032;2023-04-23T13:05:08;1.17;;;0.80;;
34783;SDS011;20998;51.388;7.032;2023-04-23T13:07:34;2.40;;;1.80;;
34783;SDS011;20998;51.388;7.032;2023-04-23T13:10:00;1.20;;;0.77;;
34783;SDS011;20998;51.388;7.032;2023-04-23T13:12:26;1.03;;;0.70;;
34783;SDS011;20998;51.388;7.032;2023-04-23T13:14:52;2.37;;;0.80;;
34783;SDS011;20998;51.388;7.032;2023-04-23T13:17:18;1.83;;;0.70;;
34783;SDS011;20998;51.388;7.032;2023-04-23T13:19:44;1.00;;;0.87;;
34783;SDS011;20998;51.388;7.032;2023-04-23T13:22:10;1.33;;;0.87;;
34783;SDS011;20998;51.388;7.032;2023-04-23T13:24:36;3.80;;;0.77;;
34783;SDS011;20998;51.388;7.032;2023-04-23T13:27:02;4.00;;;1.10;;
34783;SDS011;20998;51.388;7.032;2023-04-23T13:29:28;2.97;;;0.83;;
34783;SDS011;20998;51.388;7.032;2023-04-23T13:31:54;4.30;;;1.20;;
34783;SDS011;20998;51.388;7.032;2023-04-23T13:34:20;0.87;;;0.87;;
34783;SDS011;20998;51.388;7.032;2023-04-23T13:36:47;2.33;;;0.90;;
34783;SDS011;20998;51.388;7.032;2023-04-23T13:39:13;0.73;;;0.73;;
34783;SDS011;20998;51.388;7.032;2023-04-23T13:41:40;2.53;;;1.33;;
34783;SDS011;20998;51.388;7.032;2023-04-23T13:44:05;1.43;;;1.10;;
34783;SDS011;20998;51.388;7.032;2023-04-23T13:46:31;2.10;;;0.90;;
34783;SDS011;20998;51.388;7.032;2023-04-23T13:48:57;1.33;;;0.97;;
34783;SDS011;20998;51.388;7.032;2023-04-23T13:51:25;2.70;;;1.47;;
34783;SDS011;20998;51.388;7.032;2023-04-23T13:53:51;3.23;;;0.90;;
34783;SDS011;20998;51.388;7.032;2023-04-23T13:56:17;2.13;;;0.83;;
34783;SDS011;20998;51.388;7.032;2023-04-23T13:58:43;1.30;;;1.00;;
34783;SDS011;20998;51.388;7.032;2023-04-23T14:01:11;1.53;;;1.13;;
34783;SDS011;20998;51.388;7.032;2023-04-23T14:03:39;2.77;;;1.07;;
34783;SDS011;20998;51.388;7.032;2023-04-23T14:06:05;1.13;;;0.80;;
34783;SDS011;20998;51.388;7.032;2023-04-23T14:08:31;4.47;;;0.97;;
34783;SDS011;20998;51.388;7.032;2023-04-23T14:11:00;3.63;;;0.90;;
34783;SDS011;20998;51.388;7.032;2023-04-23T14:13:26;3.13;;;0.60;;
34783;SDS011;20998;51.388;7.032;2023-04-23T14:15:52;3.30;;;1.27;;
34783;SDS011;20998;51.388;7.032;2023-04-23T14:18:18;2.27;;;1.03;;
34783;SDS011;20998;51.388;7.032;2023-04-23T14:20:44;2.60;;;0.90;;
34783;SDS011;20998;51.388;7.032;2023-04-23T14:25:57;4.23;;;0.73;;
34783;SDS011;20998;51.388;7.032;2023-04-23T14:28:34;1.33;;;0.93;;
34783;SDS011;20998;51.388;7.032;2023-04-23T14:31:05;1.27;;;0.93;;
34783;SDS011;20998;51.388;7.032;2023-04-23T14:33:32;1.47;;;0.87;;
34783;SDS011;20998;51.388;7.032;2023-04-23T14:35:57;1.10;;;0.83;;
34783;SDS011;20998;51.388;7.032;2023-04-23T14:38:24;2.63;;;1.00;;
34783;SDS011;20998;51.388;7.032;2023-04-23T14:40:50;2.70;;;0.80;;
34783;SDS011;20998;51.388;7.032;2023-04-23T14:43:16;2.53;;;0.73;;